createdAt,value
2023-04-15T00:08:51.101Z,6.20
2023-04-15T00:13:56.265Z,6.10
2023-04-15T00:19:00.432Z,6.00
2023-04-15T00:24:04.376Z,6.10
2023-04-15T00:29:09.750Z,5.80
2023-04-15T00:34:14.391Z,5.60
2023-04-15T00:39:21.357Z,5.50
2023-04-15T00:44:27.547Z,5.30
2023-04-15T00:49:32.710Z,5.30
2023-04-15T00:54:37.721Z,5.30
2023-04-15T00:59:42.668Z,5.40
2023-04-15T01:04:49.747Z,5.70
2023-04-15T01:09:54.276Z,5.10
2023-04-15T01:15:01.472Z,5.10
2023-04-15T01:20:05.535Z,5.40
2023-04-15T01:25:11.837Z,5.10
2023-04-15T01:30:17.524Z,5.00
2023-04-15T01:35:21.335Z,5.10
2023-04-15T01:40:27.316Z,5.20
2023-04-15T01:45:33.186Z,5.30
2023-04-15T01:50:38.703Z,5.50
2023-04-15T01:55:42.401Z,5.40
2023-04-15T02:00:47.363Z,5.30
2023-04-15T02:05:51.069Z,5.20
2023-04-15T02:10:58.569Z,5.20
2023-04-15T02:16:04.336Z,5.40
2023-04-15T02:21:08.300Z,5.60
2023-04-15T02:26:14.745Z,5.50
2023-04-15T02:31:19.443Z,5.50
2023-04-15T02:36:23.962Z,5.40
2023-04-15T02:41:28.793Z,5.30
2023-04-15T02:46:33.551Z,5.20
2023-04-15T02:51:37.242Z,5.10
2023-04-15T02:56:40.611Z,4.90
2023-04-15T03:01:50.048Z,4.90
2023-04-15T03:06:53.835Z,4.70
2023-04-15T03:11:58.433Z,4.70
2023-04-15T03:17:05.856Z,4.70
2023-04-15T03:22:09.957Z,4.50
2023-04-15T03:27:14.204Z,4.50
2023-04-15T03:32:22.155Z,4.50
2023-04-15T03:37:26.442Z,4.40
2023-04-15T03:42:30.560Z,4.40
2023-04-15T03:47:36.020Z,4.30
2023-04-15T03:52:39.765Z,4.10
2023-04-15T03:57:45.204Z,4.20
2023-04-15T04:02:50.751Z,4.20
2023-04-15T04:07:54.580Z,4.40
2023-04-15T04:12:58.221Z,4.70
2023-04-15T04:18:04.053Z,4.40
2023-04-15T04:23:07.761Z,4.20
2023-04-15T04:28:11.770Z,4.20
2023-04-15T04:33:17.335Z,4.10
2023-04-15T04:38:21.214Z,4.10
2023-04-15T04:43:24.920Z,4.20
2023-04-15T04:48:30.207Z,4.10
2023-04-15T04:53:35.226Z,4.20
2023-04-15T04:58:40.624Z,4.10
2023-04-15T05:03:46.110Z,4.00
2023-04-15T05:08:50.072Z,4.00
2023-04-15T05:13:54.004Z,4.10
2023-04-15T05:18:59.547Z,4.10
2023-04-15T05:24:03.661Z,4.10
2023-04-15T05:29:12.336Z,4.10
2023-04-15T05:34:19.605Z,4.30
2023-04-15T05:39:26.992Z,4.40
2023-04-15T05:44:31.099Z,4.40
2023-04-15T05:49:36.548Z,4.40
2023-04-15T05:54:43.553Z,4.50
2023-04-15T05:59:47.904Z,4.60
2023-04-15T06:04:54.340Z,4.60
2023-04-15T06:10:00.777Z,4.70
2023-04-15T06:15:07.097Z,5.00
2023-04-15T06:20:26.384Z,5.20
2023-04-15T06:25:36.384Z,5.30
2023-04-15T06:30:44.718Z,5.30
2023-04-15T06:35:53.947Z,5.40
2023-04-15T06:40:58.100Z,5.70
2023-04-15T06:46:03.903Z,6.10
2023-04-15T06:51:09.931Z,6.50
2023-04-15T06:56:19.729Z,6.60
2023-04-15T07:01:26.705Z,6.70
2023-04-15T07:06:43.428Z,7.10
2023-04-15T07:11:55.687Z,7.70
2023-04-15T07:17:05.163Z,8.70
2023-04-15T07:22:21.428Z,9.30
2023-04-15T07:27:28.094Z,9.40
2023-04-15T07:32:32.063Z,10.00
2023-04-15T07:37:38.427Z,10.20
2023-04-15T07:42:42.681Z,10.40
2023-04-15T07:47:47.275Z,10.80
2023-04-15T07:52:53.143Z,11.00
2023-04-15T07:58:10.065Z,11.50
2023-04-15T08:09:17.511Z,11.90
2023-04-15T08:14:22.463Z,12.30
2023-04-15T08:19:28.426Z,12.70
2023-04-15T08:35:59.302Z,12.50
2023-04-15T08:41:06.311Z,13.20
2023-04-15T08:46:11.298Z,13.40
2023-04-15T08:51:26.899Z,13.60
2023-04-15T08:56:38.299Z,14.50
2023-04-15T09:01:49.740Z,16.20
2023-04-15T09:06:57.943Z,16.50
2023-04-15T09:12:13.215Z,17.20
2023-04-15T09:17:21.224Z,17.70
2023-04-15T09:22:38.464Z,18.00
2023-04-15T09:27:48.656Z,17.10
2023-04-15T09:32:53.021Z,17.80
2023-04-15T09:49:22.466Z,19.60
2023-04-15T09:54:46.769Z,19.40
2023-04-15T10:00:00.026Z,20.50
2023-04-15T10:05:06.266Z,21.10
2023-04-15T10:10:11.397Z,20.60
2023-04-15T10:15:20.374Z,21.20
2023-04-15T10:20:24.940Z,21.10
2023-04-15T10:25:28.903Z,20.70
2023-04-15T10:30:37.693Z,19.60
2023-04-15T10:35:42.443Z,18.90
2023-04-15T10:40:57.164Z,18.00
2023-04-15T10:46:03.737Z,17.80
2023-04-15T10:51:11.105Z,17.70
2023-04-15T10:56:14.850Z,16.90
2023-04-15T11:01:31.321Z,17.40
2023-04-15T11:06:52.670Z,18.40
2023-04-15T11:12:13.676Z,18.50
2023-04-15T11:17:41.250Z,18.10
2023-04-15T11:23:14.053Z,18.60
2023-04-15T11:28:20.587Z,18.60
2023-04-15T11:33:29.063Z,17.80
2023-04-15T11:38:38.455Z,16.70
2023-04-15T11:43:44.473Z,17.20
2023-04-15T11:48:56.560Z,18.10
2023-04-15T11:54:01.406Z,17.90
2023-04-15T11:59:07.265Z,17.40
2023-04-15T12:04:26.185Z,17.30
2023-04-15T12:09:40.861Z,17.30
2023-04-15T12:15:05.389Z,16.40
2023-04-15T12:20:13.795Z,16.90
2023-04-15T12:25:21.869Z,17.60
2023-04-15T12:30:29.693Z,16.80
2023-04-15T12:35:40.422Z,16.00
2023-04-15T12:41:07.548Z,16.40
2023-04-15T12:46:14.616Z,16.30
2023-04-15T12:51:36.417Z,16.20
2023-04-15T12:56:41.283Z,16.30
2023-04-15T13:01:57.696Z,16.90
2023-04-15T13:07:03.728Z,17.00
2023-04-15T13:12:14.604Z,17.10
2023-04-15T13:17:24.481Z,16.60
2023-04-15T13:22:35.479Z,16.20
2023-04-15T13:27:52.238Z,16.90
2023-04-15T13:32:58.045Z,17.10
2023-04-15T13:38:04.202Z,15.80
2023-04-15T13:43:20.924Z,16.40
2023-04-15T13:55:21.693Z,18.10
2023-04-15T14:00:30.929Z,19.70
2023-04-15T14:05:36.692Z,20.60
2023-04-15T14:10:52.173Z,20.30
2023-04-15T14:15:56.774Z,19.90
2023-04-15T14:21:14.089Z,18.50
2023-04-15T14:26:40.233Z,19.20
2023-04-15T14:32:11.696Z,18.60
2023-04-15T14:37:25.065Z,20.30
2023-04-15T14:42:31.700Z,20.50
2023-04-15T14:47:40.919Z,18.30
2023-04-15T14:52:54.421Z,16.20
2023-04-15T14:58:06.741Z,16.00
2023-04-15T15:03:14.348Z,15.80
2023-04-15T15:08:25.565Z,16.40
2023-04-15T15:13:37.938Z,16.60
2023-04-15T15:18:49.528Z,16.80
2023-04-15T15:23:55.923Z,17.00
2023-04-15T15:29:02.620Z,16.00
2023-04-15T15:34:09.641Z,15.60
2023-04-15T15:39:14.089Z,15.40
2023-04-15T15:44:22.630Z,14.50
2023-04-15T15:49:29.837Z,14.50
2023-04-15T15:54:33.265Z,14.30
2023-04-15T15:59:46.270Z,14.40
2023-04-15T16:05:08.417Z,14.10
2023-04-15T16:10:17.026Z,13.70
2023-04-15T16:15:50.441Z,13.60
2023-04-15T16:20:55.441Z,13.60
2023-04-15T16:25:59.787Z,13.40
2023-04-15T16:31:05.887Z,13.30
2023-04-15T16:36:10.074Z,13.40
2023-04-15T16:41:13.837Z,14.30
2023-04-15T16:46:19.309Z,14.30
2023-04-15T16:51:23.529Z,13.90
2023-04-15T16:56:28.006Z,13.40
2023-04-15T17:01:35.079Z,13.00
2023-04-15T17:06:39.592Z,12.70
2023-04-15T17:11:47.283Z,12.60
2023-04-15T17:17:03.807Z,12.50
2023-04-15T17:22:10.245Z,12.50
2023-04-15T17:27:15.271Z,12.30
2023-04-15T17:32:23.002Z,12.30
2023-04-15T17:37:34.690Z,12.50
2023-04-15T17:42:50.277Z,12.30
2023-04-15T17:48:02.929Z,12.30
2023-04-15T17:53:08.112Z,12.10
2023-04-15T17:58:12.523Z,12.00
2023-04-15T18:03:19.104Z,11.90
2023-04-15T18:08:32.045Z,11.70
2023-04-15T18:14:01.425Z,11.80
2023-04-15T18:19:09.409Z,11.70
2023-04-15T18:24:12.952Z,11.70
2023-04-15T18:29:16.993Z,11.60
2023-04-15T18:34:22.744Z,11.60
2023-04-15T18:39:28.546Z,11.40
2023-04-15T18:44:36.985Z,11.40
2023-04-15T18:49:50.105Z,11.30
2023-04-15T18:54:56.718Z,11.40
2023-04-15T19:00:00.499Z,11.40
2023-04-15T19:05:11.730Z,11.30
2023-04-15T19:10:17.686Z,11.20
2023-04-15T19:15:22.499Z,11.20
2023-04-15T19:20:39.749Z,11.10
2023-04-15T19:25:45.461Z,11.10
2023-04-15T19:30:49.048Z,11.10
2023-04-15T19:35:55.792Z,10.90
2023-04-15T19:41:01.995Z,11.00
2023-04-15T19:46:07.462Z,10.90
2023-04-15T19:51:12.410Z,10.70
2023-04-15T19:56:17.867Z,10.80
2023-04-15T20:01:23.293Z,10.70
2023-04-15T20:06:33.785Z,10.70
2023-04-15T20:12:47.809Z,10.70
2023-04-15T20:17:01.252Z,10.60
2023-04-15T20:22:06.624Z,10.60
2023-04-15T20:27:10.445Z,10.60
2023-04-15T20:32:23.697Z,10.60
2023-04-15T20:37:33.381Z,10.60
2023-04-15T20:42:37.012Z,10.60
2023-04-15T20:47:41.123Z,10.50
2023-04-15T20:52:53.761Z,10.40
2023-04-15T20:57:58.364Z,10.40
2023-04-15T21:03:01.881Z,10.30
2023-04-15T21:08:10.007Z,10.20
2023-04-15T21:13:17.739Z,10.10
2023-04-15T21:18:22.528Z,10.10
2023-04-15T21:23:29.027Z,10.10
2023-04-15T21:28:32.779Z,10.00
2023-04-15T21:33:40.357Z,10.00
2023-04-15T21:38:47.686Z,10.00
2023-04-15T21:43:51.485Z,10.00
2023-04-15T21:48:55.816Z,10.00
2023-04-15T21:54:01.132Z,10.00
2023-04-15T21:59:04.876Z,9.90
2023-04-15T22:04:09.800Z,9.90
2023-04-15T22:09:16.326Z,9.90
2023-04-15T22:14:21.011Z,9.90
2023-04-15T22:19:25.913Z,9.90
2023-04-15T22:24:39.888Z,9.90
2023-04-15T22:29:44.792Z,9.90
2023-04-15T22:34:48.670Z,10.00
2023-04-15T22:39:54.704Z,10.00
2023-04-15T22:44:58.726Z,10.00
2023-04-15T22:50:02.573Z,10.00
2023-04-15T22:55:09.412Z,10.00
2023-04-15T23:00:13.745Z,10.10
2023-04-15T23:05:17.640Z,9.90
2023-04-15T23:10:23.585Z,10.00
2023-04-15T23:15:27.110Z,9.90
2023-04-15T23:20:30.635Z,9.90
2023-04-15T23:25:36.217Z,9.70
2023-04-15T23:30:39.976Z,9.60
2023-04-15T23:35:44.314Z,9.60
2023-04-15T23:40:49.648Z,9.60
2023-04-15T23:45:53.569Z,9.70
2023-04-15T23:50:57.021Z,9.70
2023-04-15T23:56:03.898Z,9.70
